Time;durP1;ratioP1;P1;durP2;ratioP2;P2;SDS_P1;SDS_P2;PMS_P1;PMS_P2;Temp;Humidity;BMP_temperature;BMP_pressure;BME280_temperature;BME280_humidity;BME280_pressure;Samples;Min_cycle;Max_cycle;Signal;HPM_P1;HPM_P2
2021/07/04 00:00:43;;;;;;;4.51;3.03;;;;;;;21.12;70.21;99743.95;451597;117;926616;-65
2021/07/04 00:01:53;;;;;;;3.57;2.64;;;;;;;21.23;70.09;99741.05;471805;110;948241;-64
2021/07/04 00:02:58;;;;;;;4.17;2.68;;;;;;;21.10;69.93;99739.86;463761;113;923219;-64
2021/07/04 00:04:04;;;;;;;6.86;3.34;;;;;;;21.09;69.87;99738.20;463698;114;925338;-67
2021/07/04 00:05:11;;;;;;;6.93;3.45;;;;;;;21.06;69.74;99736.06;463350;113;922557;-67
2021/07/04 00:06:16;;;;;;;4.32;2.89;;;;;;;21.04;69.71;99739.12;464030;113;922938;-68
2021/07/04 00:07:19;;;;;;;4.46;2.78;;;;;;;21.01;69.68;99748.03;462735;113;923443;-67
2021/07/04 00:08:25;;;;;;;3.47;2.71;;;;;;;21.01;69.68;99748.03;463339;114;930429;-67
2021/07/04 00:09:29;;;;;;;2.79;2.53;;;;;;;21.01;69.68;99748.03;463277;114;922922;-68
2021/07/04 00:10:36;;;;;;;4.48;2.90;;;;;;;21.02;69.82;99754.41;463040;113;922466;-67
2021/07/04 00:11:39;;;;;;;3.22;2.66;;;;;;;21.02;69.92;99752.45;461894;113;923351;-67
2021/07/04 00:12:44;;;;;;;6.88;3.00;;;;;;;21.04;70.02;99757.70;462633;113;922683;-67
2021/07/04 00:13:48;;;;;;;8.56;2.90;;;;;;;21.03;70.19;99751.33;455606;116;922488;-66
2021/07/04 00:14:52;;;;;;;4.50;2.79;;;;;;;21.02;70.32;99754.41;462803;113;922569;-66
2021/07/04 00:15:56;;;;;;;5.79;2.94;;;;;;;21.01;70.54;99758.30;461899;114;930667;-67
2021/07/04 00:17:00;;;;;;;9.89;3.21;;;;;;;21.02;70.74;99759.95;461728;113;930369;-67
2021/07/04 00:18:03;;;;;;;6.65;2.90;;;;;;;21.04;70.86;99757.70;461224;114;922839;-67
2021/07/04 00:19:07;;;;;;;5.00;3.08;;;;;;;21.06;70.95;99756.25;461727;113;922570;-67
2021/07/04 00:20:14;;;;;;;4.98;2.81;;;;;;;21.10;71.00;99765.63;462057;113;923129;-67
2021/07/04 00:21:17;;;;;;;6.54;3.26;;;;;;;21.14;70.99;99757.52;464815;113;922444;-68
2021/07/04 00:22:21;;;;;;;3.84;3.27;;;;;;;21.17;70.96;99762.50;463806;113;922878;-67
2021/07/04 00:23:25;;;;;;;4.21;3.22;;;;;;;21.19;70.80;99761.05;463299;113;931922;-67
2021/07/04 00:24:29;;;;;;;3.86;3.42;;;;;;;21.23;70.75;99757.69;463636;114;932040;-68
2021/07/04 00:25:32;;;;;;;4.00;3.44;;;;;;;21.24;70.58;99760.13;463189;113;924156;-68
2021/07/04 00:26:38;;;;;;;5.08;3.56;;;;;;;21.26;70.65;99752.34;463515;114;930559;-67
2021/07/04 00:27:42;;;;;;;5.14;3.42;;;;;;;21.27;70.65;99750.40;463498;112;922827;-67
2021/07/04 00:28:45;;;;;;;9.08;4.22;;;;;;;21.29;70.64;99753.67;462020;113;931939;-66
2021/07/04 00:29:49;;;;;;;4.48;4.04;;;;;;;21.31;70.60;99759.74;462740;112;924052;-67
2021/07/04 00:30:54;;;;;;;5.75;4.39;;;;;;;21.32;70.39;99758.62;463460;113;930481;-67
2021/07/04 00:31:57;;;;;;;6.02;4.44;;;;;;;21.33;70.25;99763.05;462895;113;926199;-65
2021/07/04 00:33:02;;;;;;;6.01;4.44;;;;;;;21.32;70.22;99766.94;462610;113;924468;-67
2021/07/04 00:34:06;;;;;;;5.38;4.05;;;;;;;21.32;70.34;99775.26;462718;112;925057;-66
2021/07/04 00:35:11;;;;;;;5.49;4.18;;;;;;;21.32;70.27;99769.71;462864;114;924079;-66
2021/07/04 00:36:16;;;;;;;5.80;4.36;;;;;;;21.31;70.21;99768.89;462276;113;930554;-67
2021/07/04 00:37:20;;;;;;;6.49;4.55;;;;;;;21.30;70.21;99769.18;461885;113;924100;-67
2021/07/04 00:38:25;;;;;;;5.35;4.26;;;;;;;21.29;70.37;99773.91;461937;113;925623;-66
2021/07/04 00:39:29;;;;;;;5.03;4.00;;;;;;;21.28;70.57;99766.70;454536;116;925282;-67
2021/07/04 00:40:35;;;;;;;5.63;4.64;;;;;;;21.29;70.56;99768.36;460332;113;922895;-64
2021/07/04 00:41:39;;;;;;;6.88;4.08;;;;;;;21.29;70.62;99771.13;461176;114;926468;-64
2021/07/04 00:42:43;;;;;;;6.09;4.09;;;;;;;21.30;70.69;99766.41;463140;113;922585;-66
2021/07/04 00:43:48;;;;;;;5.51;3.81;;;;;;;21.30;70.61;99766.41;462423;113;930450;-65
2021/07/04 00:44:52;;;;;;;3.80;3.29;;;;;;;21.31;70.51;99762.52;463604;114;924026;-64
2021/07/04 00:45:56;;;;;;;5.63;3.75;;;;;;;21.31;70.59;99760.56;463945;113;923154;-65
2021/07/04 00:47:00;;;;;;;5.44;3.51;;;;;;;21.31;70.51;99752.25;463364;113;931975;-64
2021/07/04 00:48:05;;;;;;;8.54;4.11;;;;;;;21.32;70.43;99753.08;463634;114;924048;-64
2021/07/04 00:49:09;;;;;;;6.09;4.20;;;;;;;21.32;70.42;99750.30;461207;113;932587;-65
2021/07/04 00:50:16;;;;;;;4.65;3.97;;;;;;;21.31;70.46;99754.20;460767;113;931992;-68
2021/07/04 00:51:21;;;;;;;5.92;3.76;;;;;;;21.32;70.32;99753.90;454485;115;924230;-66
2021/07/04 00:52:26;;;;;;;5.43;3.42;;;;;;;21.31;70.30;99752.25;456060;114;924499;-66
2021/07/04 00:53:29;;;;;;;7.24;3.69;;;;;;;21.31;70.39;99754.20;462925;113;922941;-66
2021/07/04 00:54:33;;;;;;;4.78;3.41;;;;;;;21.32;70.31;99755.84;462456;113;923119;-67
2021/07/04 00:55:38;;;;;;;5.99;3.39;;;;;;;21.31;70.29;99760.56;461651;114;930775;-66
2021/07/04 00:56:43;;;;;;;5.44;3.69;;;;;;;21.30;70.33;99761.69;456640;114;930646;-67
2021/07/04 00:57:47;;;;;;;6.66;3.91;;;;;;;21.29;70.40;99765.59;447891;116;923056;-67
2021/07/04 00:58:51;;;;;;;6.31;3.82;;;;;;;21.27;70.47;99776.18;451099;114;924172;-67
2021/07/04 00:59:55;;;;;;;6.81;4.00;;;;;;;21.26;70.48;99777.30;462033;113;924114;-68
2021/07/04 01:00:59;;;;;;;5.36;3.74;;;;;;;21.21;70.50;99772.67;454947;116;923020;-67
2021/07/04 01:02:03;;;;;;;4.55;3.21;;;;;;;21.17;70.43;99773.59;462255;111;922740;-68
2021/07/04 01:03:07;;;;;;;8.26;4.34;;;;;;;21.11;70.41;99775.59;453791;116;930454;-67
2021/07/04 01:04:12;;;;;;;4.58;3.28;;;;;;;21.04;70.59;99775.16;454746;114;922664;-67
2021/07/04 01:05:20;;;;;;;4.81;3.94;;;;;;;20.97;70.63;99782.20;463139;113;922524;-68
2021/07/04 01:06:25;;;;;;;5.73;3.35;;;;;;;20.91;70.71;99784.23;464188;113;923272;-67
2021/07/04 01:07:29;;;;;;;9.80;4.01;;;;;;;20.85;70.85;99779.90;463128;112;922486;-67
2021/07/04 01:08:33;;;;;;;6.74;3.64;;;;;;;20.80;71.00;99779.98;462701;114;930511;-67
2021/07/04 01:09:38;;;;;;;4.83;3.84;;;;;;;20.76;71.17;99784.49;455990;115;922822;-67
2021/07/04 01:10:43;;;;;;;5.15;2.95;;;;;;;20.72;71.30;99783.45;457137;112;923506;-67
2021/07/04 01:11:51;;;;;;;4.94;2.88;;;;;;;20.69;71.52;99786.81;462009;112;922817;-67
2021/07/04 01:12:56;;;;;;;6.85;3.51;;;;;;;20.68;71.64;99776.84;463370;113;922677;-67
2021/07/04 01:14:01;;;;;;;6.48;3.18;;;;;;;20.66;71.69;99776.34;463105;114;922573;-67
2021/07/04 01:15:07;;;;;;;3.29;2.97;;;;;;;20.64;71.78;99775.81;463119;113;923187;-68
2021/07/04 01:16:12;;;;;;;4.17;2.98;;;;;;;20.59;71.87;99779.48;462394;113;922539;-67
2021/07/04 01:17:16;;;;;;;6.05;3.33;;;;;;;20.57;72.00;99775.36;462892;113;922575;-68
2021/07/04 01:18:21;;;;;;;4.53;3.17;;;;;;;20.54;72.16;99782.34;462282;114;924531;-67
2021/07/04 01:19:27;;;;;;;5.63;3.53;;;;;;;20.53;72.26;99785.40;461433;113;924523;-67
2021/07/04 01:20:32;;;;;;;4.57;3.24;;;;;;;20.49;72.40;99782.41;462177;113;924089;-67
2021/07/04 01:21:39;;;;;;;4.63;3.21;;;;;;;20.48;72.39;99775.22;462177;111;923439;-67
2021/07/04 01:22:58;;;;;;;6.81;3.66;;;;;;;20.47;72.48;99783.83;461110;113;924030;-67
2021/07/04 01:24:02;;;;;;;6.53;3.43;;;;;;;20.44;72.54;99776.95;461663;113;924086;-65
2021/07/04 01:25:09;;;;;;;5.99;2.89;;;;;;;20.43;72.73;99777.24;463294;114;925750;-64
2021/07/04 01:26:13;;;;;;;4.51;3.57;;;;;;;20.42;72.84;99773.66;453978;113;924076;-67
2021/07/04 01:27:18;;;;;;;4.39;3.12;;;;;;;20.43;72.86;99777.24;453285;114;926298;-66
2021/07/04 01:28:23;;;;;;;4.77;2.75;;;;;;;20.43;73.09;99775.30;455833;113;924105;-66
2021/07/04 01:29:29;;;;;;;5.58;3.34;;;;;;;20.45;73.28;99769.48;456907;114;924037;-68
2021/07/04 01:30:33;;;;;;;4.73;2.82;;;;;;;20.48;73.45;99769.69;463177;112;924044;-66
2021/07/04 01:31:37;;;;;;;5.53;3.12;;;;;;;20.52;73.45;99772.67;463290;113;924099;-66
2021/07/04 01:32:43;;;;;;;3.64;3.06;;;;;;;20.56;73.48;99765.42;462712;113;931968;-66
2021/07/04 01:33:50;;;;;;;6.24;3.22;;;;;;;20.59;73.32;99764.81;462511;113;925794;-67
2021/07/04 01:34:55;;;;;;;6.66;3.66;;;;;;;20.60;73.19;99764.52;462471;113;924177;-65
2021/07/04 01:36:00;;;;;;;4.06;2.77;;;;;;;20.61;73.07;99760.63;463137;113;923674;-67
2021/07/04 01:37:05;;;;;;;5.14;3.27;;;;;;;20.61;72.97;99765.34;461010;113;924058;-66
2021/07/04 01:38:10;;;;;;;6.46;3.19;;;;;;;20.61;72.99;99768.94;462093;113;923056;-67
2021/07/04 01:39:14;;;;;;;5.49;3.22;;;;;;;20.62;72.97;99761.46;461781;113;922577;-68
2021/07/04 01:40:22;;;;;;;6.63;3.21;;;;;;;20.64;73.02;99765.55;462382;113;930537;-67
2021/07/04 01:41:26;;;;;;;3.44;2.99;;;;;;;20.63;72.89;99772.22;462077;113;923929;-65
2021/07/04 01:42:30;;;;;;;4.27;2.86;;;;;;;20.64;72.84;99775.81;461287;113;931724;-67
2021/07/04 01:43:34;;;;;;;3.84;3.08;;;;;;;20.64;72.85;99764.73;452548;115;924481;-67
2021/07/04 01:44:37;;;;;;;3.96;2.67;;;;;;;20.65;72.81;99778.29;463835;114;931982;-66
2021/07/04 01:45:41;;;;;;;4.66;2.84;;;;;;;20.65;72.61;99772.75;463180;113;932705;-67
2021/07/04 01:46:45;;;;;;;4.48;2.24;;;;;;;20.66;72.59;99770.80;463169;113;934245;-64
2021/07/04 01:47:50;;;;;;;4.09;2.39;;;;;;;20.65;71.90;99766.38;463643;113;927029;-66
2021/07/04 01:48:54;;;;;;;3.99;2.74;;;;;;;20.65;71.69;99766.38;464499;113;930516;-66
2021/07/04 01:49:58;;;;;;;7.62;3.12;;;;;;;20.64;71.43;99771.09;463977;113;922498;-65
2021/07/04 01:51:02;;;;;;;5.04;2.66;;;;;;;20.62;71.25;99778.08;463021;113;923155;-67
2021/07/04 01:52:07;;;;;;;5.61;2.84;;;;;;;20.63;71.29;99776.93;463433;113;923133;-66
2021/07/04 01:53:13;;;;;;;2.71;2.38;;;;;;;20.63;71.34;99783.30;462521;113;923059;-67
2021/07/04 01:54:18;;;;;;;3.71;2.55;;;;;;;20.65;71.33;99780.23;463234;113;922568;-67
2021/07/04 01:55:23;;;;;;;3.38;2.56;;;;;;;20.67;71.17;99786.30;452607;114;923452;-66
2021/07/04 01:56:28;;;;;;;3.91;2.70;;;;;;;20.65;70.93;99786.60;453975;114;923072;-67
2021/07/04 01:57:34;;;;;;;5.43;2.74;;;;;;;20.64;70.55;99776.64;463073;113;922489;-68
2021/07/04 01:58:41;;;;;;;3.18;2.31;;;;;;;20.63;70.38;99785.23;461706;113;922607;-68
2021/07/04 01:59:47;;;;;;;2.98;2.23;;;;;;;20.62;70.45;99773.33;462185;113;922809;-68
2021/07/04 02:00:53;;;;;;;3.91;2.45;;;;;;;20.61;70.69;99768.94;462185;113;922961;-67
2021/07/04 02:01:56;;;;;;;3.72;2.66;;;;;;;20.65;70.80;99775.52;460819;114;922601;-68
2021/07/04 02:03:03;;;;;;;4.71;2.63;;;;;;;20.69;71.01;99781.27;453199;115;922843;-66
2021/07/04 02:04:09;;;;;;;3.62;2.57;;;;;;;20.72;71.04;99775.97;453086;115;922534;-66
2021/07/04 02:05:15;;;;;;;6.71;2.76;;;;;;;20.77;70.98;99766.75;453915;116;923016;-68
2021/07/04 02:06:19;;;;;;;6.49;2.86;;;;;;;20.81;70.67;99767.78;453573;116;923229;-68
2021/07/04 02:07:24;;;;;;;5.08;2.84;;;;;;;20.85;70.48;99766.05;452903;114;922409;-67
2021/07/04 02:08:30;;;;;;;3.44;2.73;;;;;;;20.89;70.33;99766.28;453803;115;924251;-66
2021/07/04 02:09:46;;;;;;;4.06;2.38;;;;;;;20.92;70.07;99754.58;454370;116;924198;-67
2021/07/04 02:10:50;;;;;;;4.88;2.62;;;;;;;20.95;69.97;99756.77;443775;116;922840;-67
2021/07/04 02:11:55;;;;;;;3.52;2.88;;;;;;;20.98;69.83;99747.83;443806;116;922634;-67
2021/07/04 02:12:59;;;;;;;3.33;2.64;;;;;;;21.01;69.84;99761.89;454910;115;930706;-67
2021/07/04 02:14:04;;;;;;;5.41;3.14;;;;;;;21.03;69.56;99753.28;455606;116;922890;-67
2021/07/04 02:15:12;;;;;;;5.04;2.78;;;;;;;21.04;69.47;99750.21;454063;116;922389;-66
2021/07/04 02:16:19;;;;;;;6.97;2.94;;;;;;;21.06;69.41;99756.25;454051;115;925645;-65
2021/07/04 02:17:25;;;;;;;3.59;2.74;;;;;;;21.08;68.99;99745.70;443125;116;924269;-66
2021/07/04 02:18:33;;;;;;;3.88;2.29;;;;;;;21.09;68.88;99747.34;453199;114;924018;-66
2021/07/04 02:19:54;;;;;;;4.90;3.06;;;;;;;21.12;68.93;99741.18;439852;118;924286;-65
2021/07/04 02:21:00;;;;;;;4.45;2.60;;;;;;;21.14;69.06;99740.88;431905;120;931206;-67
2021/07/04 02:22:10;;;;;;;4.31;3.24;;;;;;;21.13;69.15;99739.23;431196;120;924585;-66
2021/07/04 02:23:31;;;;;;;6.13;2.96;;;;;;;21.14;69.20;99738.97;437063;118;924003;-66
2021/07/04 02:24:37;;;;;;;5.35;2.94;;;;;;;21.16;69.13;99735.90;437655;118;924436;-67
2021/07/04 02:25:45;;;;;;;4.76;2.83;;;;;;;21.18;69.04;99734.45;444946;118;924053;-66
2021/07/04 02:26:49;;;;;;;3.65;2.53;;;;;;;21.19;68.64;99736.10;445115;118;923923;-66
2021/07/04 02:28:12;;;;;;;3.18;2.57;;;;;;;21.21;68.28;99738.58;438574;119;924072;-67
2021/07/04 02:29:17;;;;;;;6.15;2.52;;;;;;;21.21;68.21;99741.35;438696;120;931985;-66
2021/07/04 02:30:25;;;;;;;8.76;2.64;;;;;;;21.20;68.27;99737.75;440680;118;924541;-66
2021/07/04 02:31:30;;;;;;;5.40;4.24;;;;;;;21.20;68.14;99739.70;446816;117;924566;-66
2021/07/04 02:32:34;;;;;;;3.76;3.41;;;;;;;21.20;68.41;99739.70;446476;118;925682;-66
2021/07/04 02:33:38;;;;;;;3.95;2.87;;;;;;;21.20;68.52;99740.52;438038;120;925475;-68
2021/07/04 02:34:42;;;;;;;3.70;2.52;;;;;;;21.23;68.58;99746.59;428648;120;925546;-66
2021/07/04 02:35:49;;;;;;;3.25;2.68;;;;;;;21.26;68.38;99743.20;444228;116;924176;-66
2021/07/04 02:36:53;;;;;;;3.67;2.73;;;;;;;21.29;68.25;99742.58;454794;115;931943;-67
2021/07/04 02:37:59;;;;;;;3.74;2.61;;;;;;;21.31;68.14;99746.70;454280;115;924086;-66
2021/07/04 02:39:04;;;;;;;5.12;2.84;;;;;;;21.37;67.86;99756.58;454303;116;924068;-67
2021/07/04 02:40:09;;;;;;;5.04;2.84;;;;;;;21.43;67.57;99752.58;454540;116;922509;-67
2021/07/04 02:41:15;;;;;;;4.57;3.26;;;;;;;21.43;67.82;99752.58;455342;116;924503;-67
2021/07/04 02:42:18;;;;;;;4.76;3.46;;;;;;;21.43;67.82;99748.98;453722;113;922568;-67
2021/07/04 02:43:24;;;;;;;5.41;3.32;;;;;;;21.44;67.91;99759.77;454563;115;933485;-67
2021/07/04 02:44:29;;;;;;;6.87;4.29;;;;;;;21.47;67.99;99763.88;454381;115;924075;-67
2021/07/04 02:45:33;;;;;;;3.89;3.42;;;;;;;21.50;67.99;99760.50;454624;115;923707;-65
2021/07/04 02:46:39;;;;;;;5.63;3.88;;;;;;;21.50;67.71;99761.30;454287;116;932834;-66
2021/07/04 02:47:44;;;;;;;6.89;3.38;;;;;;;21.52;67.72;99761.83;453921;116;922520;-67
2021/07/04 02:48:48;;;;;;;4.56;2.91;;;;;;;21.55;67.80;99763.17;455448;115;922508;-67
2021/07/04 02:49:52;;;;;;;3.15;2.73;;;;;;;21.57;67.92;99758.13;454152;115;922975;-67
2021/07/04 02:50:56;;;;;;;5.16;2.88;;;;;;;21.61;67.81;99764.72;454599;115;922538;-67
2021/07/04 02:52:01;;;;;;;3.30;2.44;;;;;;;21.63;67.76;99754.95;455119;116;922719;-67
2021/07/04 02:53:05;;;;;;;3.44;2.42;;;;;;;21.66;67.53;99750.75;455820;116;922496;-67
2021/07/04 02:54:09;;;;;;;3.46;2.72;;;;;;;21.68;67.40;99751.23;447035;116;922649;-66
2021/07/04 02:55:14;;;;;;;4.44;2.79;;;;;;;21.69;67.48;99755.67;447605;116;923333;-67
2021/07/04 02:56:19;;;;;;;3.34;2.92;;;;;;;21.70;67.58;99757.31;455086;116;923120;-69
2021/07/04 02:57:23;;;;;;;3.54;2.88;;;;;;;21.72;67.61;99749.52;454607;116;931123;-68
2021/07/04 02:58:26;;;;;;;2.96;2.66;;;;;;;21.73;67.28;99750.31;440510;118;922638;-66
2021/07/04 02:59:31;;;;;;;4.25;2.59;;;;;;;21.74;67.26;99763.89;448711;116;923032;-66
2021/07/04 03:00:35;;;;;;;2.80;2.41;;;;;;;21.74;66.98;99761.11;454305;116;926289;-66
2021/07/04 03:01:39;;;;;;;8.23;2.95;;;;;;;21.75;66.95;99750.84;455576;116;926111;-65
2021/07/04 03:02:43;;;;;;;3.49;3.06;;;;;;;21.74;67.05;99758.34;458030;112;925075;-66
2021/07/04 03:03:48;;;;;;;3.31;2.61;;;;;;;21.75;67.26;99770.27;461261;113;922828;-66
2021/07/04 03:04:53;;;;;;;3.52;2.65;;;;;;;21.76;67.36;99766.36;461028;113;923218;-67
2021/07/04 03:05:57;;;;;;;4.68;2.71;;;;;;;21.77;67.29;99774.39;454793;116;926436;-67
2021/07/04 03:07:02;;;;;;;6.63;2.84;;;;;;;21.78;67.37;99770.45;461101;114;924533;-67
2021/07/04 03:08:07;;;;;;;4.30;2.89;;;;;;;21.80;67.40;99761.83;454314;115;922987;-66
2021/07/04 03:09:11;;;;;;;3.26;2.49;;;;;;;21.80;67.18;99756.28;462013;113;931997;-67
2021/07/04 03:10:20;;;;;;;4.58;3.14;;;;;;;21.81;67.25;99758.75;463090;113;922498;-65
2021/07/04 03:11:25;;;;;;;3.47;2.72;;;;;;;21.82;67.14;99760.41;463792;113;922524;-67
2021/07/04 03:12:28;;;;;;;3.69;2.75;;;;;;;21.83;66.97;99758.45;464028;113;922481;-66
2021/07/04 03:13:34;;;;;;;4.07;2.81;;;;;;;21.84;66.74;99757.30;463210;113;924116;-67
2021/07/04 03:14:39;;;;;;;4.36;2.97;;;;;;;21.85;66.67;99753.40;463587;114;922428;-67
2021/07/04 03:15:43;;;;;;;3.21;2.63;;;;;;;21.86;66.38;99755.05;462857;113;924442;-67
2021/07/04 03:16:46;;;;;;;4.71;3.14;;;;;;;21.86;66.30;99757.82;463465;113;932148;-66
2021/07/04 03:17:50;;;;;;;3.65;3.26;;;;;;;21.84;66.40;99755.34;463152;114;932032;-68
2021/07/04 03:18:55;;;;;;;4.13;3.16;;;;;;;21.84;66.37;99757.30;462574;112;922526;-67
2021/07/04 03:20:00;;;;;;;3.37;2.82;;;;;;;21.83;66.30;99756.47;462621;113;924547;-67
2021/07/04 03:21:04;;;;;;;4.56;3.29;;;;;;;21.83;66.19;99756.47;453233;115;928277;-67
2021/07/04 03:22:07;;;;;;;4.33;2.92;;;;;;;21.84;66.30;99754.52;453117;114;926020;-67
2021/07/04 03:23:14;;;;;;;6.09;3.55;;;;;;;21.83;66.37;99756.47;462750;114;930632;-66
2021/07/04 03:24:18;;;;;;;3.72;3.38;;;;;;;21.84;66.43;99755.34;462497;113;923860;-67
2021/07/04 03:25:23;;;;;;;4.25;2.79;;;;;;;21.84;66.21;99747.02;461296;113;925855;-66
2021/07/04 03:26:29;;;;;;;6.03;2.87;;;;;;;21.84;66.27;99747.02;462416;113;930761;-68
2021/07/04 03:27:33;;;;;;;4.66;2.97;;;;;;;21.86;66.28;99741.17;460420;112;926609;-67
2021/07/04 03:28:38;;;;;;;3.51;2.95;;;;;;;21.85;66.22;99745.89;461339;114;924141;-65
2021/07/04 03:29:43;;;;;;;4.48;2.98;;;;;;;21.86;66.43;99742.00;462505;113;924549;-64
2021/07/04 03:30:48;;;;;;;3.71;2.99;;;;;;;21.87;66.64;99738.09;464283;113;923245;-68
2021/07/04 03:31:51;;;;;;;4.94;3.22;;;;;;;21.88;66.52;99739.74;463786;113;924614;-65
2021/07/04 03:32:55;;;;;;;4.24;3.34;;;;;;;21.89;66.52;99729.44;462262;113;932460;-67
2021/07/04 03:34:02;;;;;;;6.98;5.59;;;;;;;21.90;66.65;99729.13;461760;113;922924;-65
2021/07/04 03:35:10;;;;;;;9.76;8.79;;;;;;;21.91;66.77;99735.51;462838;113;924432;-67
2021/07/04 03:36:15;;;;;;;4.99;3.92;;;;;;;21.91;66.66;99732.73;449237;117;922613;-67
2021/07/04 03:37:20;;;;;;;7.45;4.20;;;;;;;21.92;66.58;99726.05;460115;114;922612;-66
2021/07/04 03:38:23;;;;;;;4.45;3.56;;;;;;;21.91;66.38;99728.01;462903;113;922813;-66
2021/07/04 03:39:27;;;;;;;6.77;3.71;;;;;;;21.91;66.30;99728.01;462887;113;923188;-67
2021/07/04 03:40:32;;;;;;;3.50;3.08;;;;;;;21.92;66.25;99739.93;462960;112;922498;-67
2021/07/04 03:41:37;;;;;;;5.01;3.99;;;;;;;21.90;66.25;99729.13;462106;113;922619;-68
2021/07/04 03:42:43;;;;;;;3.42;3.00;;;;;;;21.90;66.26;99736.63;454294;115;922924;-68
2021/07/04 03:43:47;;;;;;;4.03;3.14;;;;;;;21.88;66.13;99736.14;454867;113;922989;-65
2021/07/04 03:44:51;;;;;;;4.35;3.95;;;;;;;21.86;66.24;99739.22;462007;113;922558;-67
2021/07/04 03:45:54;;;;;;;5.28;3.33;;;;;;;21.85;66.38;99734.80;452661;114;930543;-68
2021/07/04 03:46:59;;;;;;;4.80;3.79;;;;;;;21.86;66.52;99735.62;452785;114;922749;-67
2021/07/04 03:48:04;;;;;;;5.59;3.43;;;;;;;21.87;66.51;99743.64;453782;114;930816;-67
2021/07/04 03:49:10;;;;;;;4.57;3.52;;;;;;;21.89;66.64;99734.98;455360;114;923368;-67
2021/07/04 03:50:16;;;;;;;4.23;3.42;;;;;;;21.90;66.71;99736.63;463277;114;923946;-67
2021/07/04 03:51:21;;;;;;;3.79;3.29;;;;;;;21.93;66.71;99731.30;464004;113;923101;-68
2021/07/04 03:52:25;;;;;;;5.22;3.34;;;;;;;21.94;66.72;99727.41;463641;113;930528;-66
2021/07/04 03:53:29;;;;;;;4.20;3.81;;;;;;;21.97;66.70;99737.08;457062;113;923086;-68
2021/07/04 03:54:33;;;;;;;3.56;3.26;;;;;;;22.00;66.75;99731.72;456348;114;923836;-67
2021/07/04 03:55:38;;;;;;;4.11;3.28;;;;;;;22.02;66.75;99728.64;463680;113;931688;-64
2021/07/04 03:56:43;;;;;;;6.16;3.31;;;;;;;22.03;66.71;99728.33;455119;116;922525;-67
2021/07/04 03:57:48;;;;;;;3.83;3.46;;;;;;;22.06;66.65;99724.09;463462;114;923907;-68
2021/07/04 03:58:53;;;;;;;4.79;4.18;;;;;;;22.06;66.61;99724.09;463019;113;923118;-67
2021/07/04 04:00:00;;;;;;;5.31;3.99;;;;;;;22.09;66.76;99731.82;462886;113;922504;-68
2021/07/04 04:01:05;;;;;;;5.41;3.15;;;;;;;22.09;66.76;99731.82;463000;114;924108;-67
2021/07/04 04:02:11;;;;;;;4.31;3.86;;;;;;;22.10;66.92;99725.14;453653;116;924952;-67
2021/07/04 04:03:15;;;;;;;4.45;3.64;;;;;;;22.12;66.91;99727.58;444188;116;926798;-67
2021/07/04 04:04:24;;;;;;;8.01;3.84;;;;;;;22.13;66.85;99720.91;460932;113;924722;-65
2021/07/04 04:05:28;;;;;;;7.86;3.88;;;;;;;22.14;66.60;99731.70;461811;114;926241;-71
2021/07/04 04:06:33;;;;;;;3.97;3.64;;;;;;;22.13;66.41;99723.67;462028;114;928276;-65
2021/07/04 04:07:39;;;;;;;4.51;3.97;;;;;;;22.10;66.15;99725.14;460452;113;922442;-64
2021/07/04 04:08:44;;;;;;;6.66;3.94;;;;;;;22.07;66.25;99727.70;461392;113;924180;-64
2021/07/04 04:09:51;;;;;;;4.83;4.11;;;;;;;22.04;66.34;99729.16;459157;115;932888;-65
2021/07/04 04:10:56;;;;;;;4.05;3.64;;;;;;;22.01;66.51;99730.59;459917;114;925411;-65
2021/07/04 04:12:00;;;;;;;4.41;3.61;;;;;;;22.00;66.65;99723.39;456817;114;924033;-68
2021/07/04 04:13:05;;;;;;;4.58;3.78;;;;;;;22.01;66.83;99729.77;455088;114;924155;-67
2021/07/04 04:14:10;;;;;;;4.55;3.89;;;;;;;22.01;66.94;99726.98;463246;113;923038;-65
2021/07/04 04:15:15;;;;;;;7.26;3.96;;;;;;;22.03;67.01;99730.28;463518;113;922792;-67
2021/07/04 04:16:21;;;;;;;4.71;3.99;;;;;;;22.05;67.04;99728.03;463415;113;923086;-67
2021/07/04 04:17:26;;;;;;;4.74;4.18;;;;;;;22.07;67.03;99730.47;462202;113;923880;-67
2021/07/04 04:18:36;;;;;;;3.94;3.52;;;;;;;22.09;66.98;99731.00;463481;114;930567;-68
2021/07/04 04:19:37;;;;;;;5.24;3.76;;;;;;;22.09;67.03;99734.59;462529;114;926491;-64
2021/07/04 04:20:42;;;;;;;5.20;3.87;;;;;;;22.11;67.08;99732.31;462327;113;924058;-67
2021/07/04 04:21:46;;;;;;;3.66;3.39;;;;;;;22.13;67.11;99732.83;462852;113;925066;-67
2021/07/04 04:22:49;;;;;;;4.38;3.80;;;;;;;22.15;67.03;99722.25;462923;114;924556;-67
2021/07/04 04:23:53;;;;;;;5.48;3.96;;;;;;;22.17;66.90;99730.24;463209;114;924530;-68
2021/07/04 04:24:58;;;;;;;5.64;4.11;;;;;;;22.18;66.90;99726.34;462009;113;930569;-66
2021/07/04 04:26:03;;;;;;;4.26;3.74;;;;;;;22.18;66.86;99727.16;462578;113;922528;-66
2021/07/04 04:27:06;;;;;;;4.21;3.56;;;;;;;22.19;66.83;99725.20;462906;113;923426;-67
2021/07/04 04:28:10;;;;;;;4.32;3.84;;;;;;;22.20;66.88;99724.08;461850;113;922505;-68
2021/07/04 04:29:14;;;;;;;4.70;3.39;;;;;;;22.20;66.79;99724.91;461517;114;922617;-66
2021/07/04 04:30:20;;;;;;;10.49;7.31;;;;;;;22.19;66.86;99720.48;452994;115;923170;-67
2021/07/04 04:31:24;;;;;;;11.70;10.66;;;;;;;22.18;66.93;99718.83;453521;116;922595;-67
2021/07/04 04:32:29;;;;;;;8.08;6.99;;;;;;;22.19;67.09;99714.10;463194;113;922972;-67
2021/07/04 04:33:32;;;;;;;7.97;7.32;;;;;;;22.20;67.00;99707.42;463274;113;922551;-68
2021/07/04 04:34:36;;;;;;;4.11;3.79;;;;;;;22.21;67.05;99709.89;464127;113;930435;-68
2021/07/04 04:35:40;;;;;;;5.72;4.44;;;;;;;22.22;66.91;99714.28;464053;113;922560;-68
2021/07/04 04:36:44;;;;;;;5.16;4.43;;;;;;;22.23;66.92;99712.34;464277;113;922541;-67
2021/07/04 04:37:48;;;;;;;4.78;4.32;;;;;;;22.23;66.94;99707.61;463761;113;923065;-69
2021/07/04 04:38:51;;;;;;;4.49;4.12;;;;;;;22.26;67.05;99717.28;463833;113;930427;-66
2021/07/04 04:39:55;;;;;;;4.84;4.21;;;;;;;22.28;67.13;99714.99;463342;113;922667;-67
2021/07/04 04:40:59;;;;;;;4.13;3.50;;;;;;;22.31;67.20;99714.38;463859;113;930595;-67
2021/07/04 04:42:02;;;;;;;4.14;3.76;;;;;;;22.32;67.16;99716.86;463257;113;922613;-67
2021/07/04 04:43:08;;;;;;;4.70;4.31;;;;;;;22.34;67.21;99706.23;462710;113;924609;-68
2021/07/04 04:44:12;;;;;;;6.72;4.11;;;;;;;22.37;67.19;99713.13;462949;113;923296;-68
2021/07/04 04:45:16;;;;;;;4.62;4.30;;;;;;;22.38;67.11;99721.13;454076;116;922417;-68
2021/07/04 04:46:20;;;;;;;5.39;3.95;;;;;;;22.41;67.09;99722.47;461894;113;931947;-67
2021/07/04 04:47:24;;;;;;;4.29;3.85;;;;;;;22.43;66.85;99722.99;462421;114;931619;-67
2021/07/04 04:48:28;;;;;;;4.69;3.94;;;;;;;22.44;66.78;99722.66;462869;113;923092;-67
2021/07/04 04:49:32;;;;;;;7.25;4.24;;;;;;;22.47;66.84;99718.44;462470;113;922557;-65
2021/07/04 04:50:38;;;;;;;4.64;3.72;;;;;;;22.50;66.84;99722.53;452960;115;931997;-67
2021/07/04 04:51:41;;;;;;;4.00;3.70;;;;;;;22.51;66.87;99713.89;453994;115;924379;-67
2021/07/04 04:52:45;;;;;;;5.18;3.97;;;;;;;22.55;66.94;99719.66;462238;113;930721;-67
2021/07/04 04:53:49;;;;;;;5.18;4.70;;;;;;;22.56;66.95;99719.32;461679;110;931731;-66
2021/07/04 04:54:53;;;;;;;4.99;4.16;;;;;;;22.60;66.83;99714.80;462670;113;924033;-66
2021/07/04 04:55:56;;;;;;;6.08;4.21;;;;;;;22.62;66.76;99712.50;463995;113;923964;-67
2021/07/04 04:57:07;;;;;;;5.80;4.23;;;;;;;22.65;66.71;99713.84;463113;114;925733;-67
2021/07/04 04:58:10;;;;;;;5.46;4.03;;;;;;;22.68;66.68;99713.20;463993;114;925506;-68
2021/07/04 04:59:14;;;;;;;4.85;4.42;;;;;;;22.71;66.59;99709.81;462381;114;923977;-68
2021/07/04 05:00:19;;;;;;;4.52;3.88;;;;;;;22.72;66.60;99701.16;462404;113;924443;-67
2021/07/04 05:01:26;;;;;;;4.00;3.69;;;;;;;22.74;66.64;99707.23;462427;113;924148;-67
2021/07/04 05:02:28;;;;;;;4.46;4.13;;;;;;;22.76;66.47;99698.59;462900;113;924042;-68